sensor_id;sensor_type;location;lat;lon;timestamp;temperature;humidity
12901;DHT22;6518;50.930;5.344;2023-04-24T00:00:59;11.20;95.90
12901;DHT22;6518;50.930;5.344;2023-04-24T00:03:27;11.20;95.90
12901;DHT22;6518;50.930;5.344;2023-04-24T00:05:54;11.10;96.00
12901;DHT22;6518;50.930;5.344;2023-04-24T00:08:23;11.20;96.20
12901;DHT22;6518;50.930;5.344;2023-04-24T00:10:50;11.10;96.70
12901;DHT22;6518;50.930;5.344;2023-04-24T00:13:18;11.10;96.50
12901;DHT22;6518;50.930;5.344;2023-04-24T00:15:45;11.00;97.00
12901;DHT22;6518;50.930;5.344;2023-04-24T00:18:12;11.00;97.50
12901;DHT22;6518;50.930;5.344;2023-04-24T00:20:39;10.90;97.70
12901;DHT22;6518;50.930;5.344;2023-04-24T00:23:06;11.00;98.20
12901;DHT22;6518;50.930;5.344;2023-04-24T00:25:34;11.00;98.00
12901;DHT22;6518;50.930;5.344;2023-04-24T00:28:01;11.00;97.90
12901;DHT22;6518;50.930;5.344;2023-04-24T00:30:28;11.00;97.90
12901;DHT22;6518;50.930;5.344;2023-04-24T00:32:55;11.00;98.00
12901;DHT22;6518;50.930;5.344;2023-04-24T00:35:22;11.00;98.20
12901;DHT22;6518;50.930;5.344;2023-04-24T00:37:49;11.00;98.40
12901;DHT22;6518;50.930;5.344;2023-04-24T00:40:16;11.00;98.30
12901;DHT22;6518;50.930;5.344;2023-04-24T00:42:44;11.00;98.50
12901;DHT22;6518;50.930;5.344;2023-04-24T00:45:12;10.90;98.60
12901;DHT22;6518;50.930;5.344;2023-04-24T00:47:39;10.90;99.20
12901;DHT22;6518;50.930;5.344;2023-04-24T00:50:08;11.00;98.90
12901;DHT22;6518;50.930;5.344;2023-04-24T00:52:35;11.00;98.70
12901;DHT22;6518;50.930;5.344;2023-04-24T00:55:03;11.00;98.90
12901;DHT22;6518;50.930;5.344;2023-04-24T00:57:31;11.00;98.90
12901;DHT22;6518;50.930;5.344;2023-04-24T00:59:59;10.90;99.20
12901;DHT22;6518;50.930;5.344;2023-04-24T01:02:26;10.90;99.90
12901;DHT22;6518;50.930;5.344;2023-04-24T01:04:53;11.00;99.60
12901;DHT22;6518;50.930;5.344;2023-04-24T01:07:20;11.00;99.60
12901;DHT22;6518;50.930;5.344;2023-04-24T01:09:48;11.00;99.50
12901;DHT22;6518;50.930;5.344;2023-04-24T01:12:17;11.00;99.70
12901;DHT22;6518;50.930;5.344;2023-04-24T01:14:44;10.90;99.90
12901;DHT22;6518;50.930;5.344;2023-04-24T01:17:13;10.80;99.90
12901;DHT22;6518;50.930;5.344;2023-04-24T01:19:40;10.80;99.90
12901;DHT22;6518;50.930;5.344;2023-04-24T01:22:13;10.80;99.90
12901;DHT22;6518;50.930;5.344;2023-04-24T01:24:40;10.90;99.90
12901;DHT22;6518;50.930;5.344;2023-04-24T01:27:08;10.90;99.90
12901;DHT22;6518;50.930;5.344;2023-04-24T01:29:35;10.90;99.90
12901;DHT22;6518;50.930;5.344;2023-04-24T01:32:02;10.90;99.90
12901;DHT22;6518;50.930;5.344;2023-04-24T01:34:29;10.90;99.90
12901;DHT22;6518;50.930;5.344;2023-04-24T01:36:56;10.90;99.90
12901;DHT22;6518;50.930;5.344;2023-04-24T01:39:25;10.80;99.90
12901;DHT22;6518;50.930;5.344;2023-04-24T01:41:54;10.80;99.90
12901;DHT22;6518;50.930;5.344;2023-04-24T01:44:21;10.80;99.90
12901;DHT22;6518;50.930;5.344;2023-04-24T01:46:48;10.80;99.90
12901;DHT22;6518;50.930;5.344;2023-04-24T01:49:15;10.80;99.90
12901;DHT22;6518;50.930;5.344;2023-04-24T01:51:42;10.80;99.90
12901;DHT22;6518;50.930;5.344;2023-04-24T01:54:09;10.80;99.90
12901;DHT22;6518;50.930;5.344;2023-04-24T01:56:40;10.80;99.90
12901;DHT22;6518;50.930;5.344;2023-04-24T01:59:07;10.80;99.90
12901;DHT22;6518;50.930;5.344;2023-04-24T02:01:36;10.80;99.90
12901;DHT22;6518;50.930;5.344;2023-04-24T02:04:04;10.80;99.90
12901;DHT22;6518;50.930;5.344;2023-04-24T02:06:31;10.80;99.90
12901;DHT22;6518;50.930;5.344;2023-04-24T02:08:58;10.80;99.90
12901;DHT22;6518;50.930;5.344;2023-04-24T02:11:25;10.80;99.90
12901;DHT22;6518;50.930;5.344;2023-04-24T02:13:53;10.70;99.90
12901;DHT22;6518;50.930;5.344;2023-04-24T02:16:20;10.70;99.90
12901;DHT22;6518;50.930;5.344;2023-04-24T02:18:47;10.60;99.90
12901;DHT22;6518;50.930;5.344;2023-04-24T02:21:14;10.60;99.90
12901;DHT22;6518;50.930;5.344;2023-04-24T02:23:41;10.60;99.90
12901;DHT22;6518;50.930;5.344;2023-04-24T02:26:08;10.50;99.90
12901;DHT22;6518;50.930;5.344;2023-04-24T02:28:35;10.50;99.90
12901;DHT22;6518;50.930;5.344;2023-04-24T02:31:03;10.50;99.90
12901;DHT22;6518;50.930;5.344;2023-04-24T02:33:30;10.50;99.90
12901;DHT22;6518;50.930;5.344;2023-04-24T02:35:57;10.50;99.90
12901;DHT22;6518;50.930;5.344;2023-04-24T02:38:25;10.50;99.90
12901;DHT22;6518;50.930;5.344;2023-04-24T02:40:51;10.50;99.90
12901;DHT22;6518;50.930;5.344;2023-04-24T02:43:18;10.50;99.90
12901;DHT22;6518;50.930;5.344;2023-04-24T02:45:45;10.30;99.90
12901;DHT22;6518;50.930;5.344;2023-04-24T02:48:14;10.30;99.90
12901;DHT22;6518;50.930;5.344;2023-04-24T02:50:41;10.30;99.90
12901;DHT22;6518;50.930;5.344;2023-04-24T02:53:07;10.30;99.90
12901;DHT22;6518;50.930;5.344;2023-04-24T02:55:34;10.30;99.90
12901;DHT22;6518;50.930;5.344;2023-04-24T02:58:01;10.20;99.90
12901;DHT22;6518;50.930;5.344;2023-04-24T03:00:28;10.30;99.90
12901;DHT22;6518;50.930;5.344;2023-04-24T03:02:55;10.20;99.90
12901;DHT22;6518;50.930;5.344;2023-04-24T03:05:24;10.20;99.90
12901;DHT22;6518;50.930;5.344;2023-04-24T03:07:50;10.20;99.90
12901;DHT22;6518;50.930;5.344;2023-04-24T03:10:18;10.20;99.90
12901;DHT22;6518;50.930;5.344;2023-04-24T03:12:45;10.20;99.90
12901;DHT22;6518;50.930;5.344;2023-04-24T03:15:12;10.10;99.90
12901;DHT22;6518;50.930;5.344;2023-04-24T03:17:39;10.10;99.90
12901;DHT22;6518;50.930;5.344;2023-04-24T03:20:07;10.10;99.90
12901;DHT22;6518;50.930;5.344;2023-04-24T03:22:36;10.20;99.90
12901;DHT22;6518;50.930;5.344;2023-04-24T03:25:03;10.10;99.90
12901;DHT22;6518;50.930;5.344;2023-04-24T03:27:30;10.20;99.90
12901;DHT22;6518;50.930;5.344;2023-04-24T03:29:57;10.10;99.90
12901;DHT22;6518;50.930;5.344;2023-04-24T03:32:24;10.10;99.90
12901;DHT22;6518;50.930;5.344;2023-04-24T03:34:51;10.10;99.90
12901;DHT22;6518;50.930;5.344;2023-04-24T03:37:18;10.10;99.90
12901;DHT22;6518;50.930;5.344;2023-04-24T03:39:47;10.10;99.90
12901;DHT22;6518;50.930;5.344;2023-04-24T03:42:14;10.00;99.90
12901;DHT22;6518;50.930;5.344;2023-04-24T03:44:41;10.00;99.90
12901;DHT22;6518;50.930;5.344;2023-04-24T03:47:07;10.00;99.90
12901;DHT22;6518;50.930;5.344;2023-04-24T03:49:34;10.00;99.90
12901;DHT22;6518;50.930;5.344;2023-04-24T03:52:01;10.10;99.90
12901;DHT22;6518;50.930;5.344;2023-04-24T03:54:28;10.10;99.90
12901;DHT22;6518;50.930;5.344;2023-04-24T03:56:56;10.10;99.90
12901;DHT22;6518;50.930;5.344;2023-04-24T03:59:23;10.10;99.90
12901;DHT22;6518;50.930;5.344;2023-04-24T04:01:50;10.10;99.90
12901;DHT22;6518;50.930;5.344;2023-04-24T04:04:17;10.10;99.90
12901;DHT22;6518;50.930;5.344;2023-04-24T04:06:44;10.10;99.90
12901;DHT22;6518;50.930;5.344;2023-04-24T04:09:12;10.00;99.90
12901;DHT22;6518;50.930;5.344;2023-04-24T04:11:38;10.00;99.90
12901;DHT22;6518;50.930;5.344;2023-04-24T04:14:07;10.00;99.90
12901;DHT22;6518;50.930;5.344;2023-04-24T04:16:34;10.00;99.90
12901;DHT22;6518;50.930;5.344;2023-04-24T04:19:02;10.00;99.90
12901;DHT22;6518;50.930;5.344;2023-04-24T04:21:29;10.00;99.90
12901;DHT22;6518;50.930;5.344;2023-04-24T04:23:56;10.00;99.90
12901;DHT22;6518;50.930;5.344;2023-04-24T04:26:23;10.00;99.90
12901;DHT22;6518;50.930;5.344;2023-04-24T04:28:51;10.00;99.90
12901;DHT22;6518;50.930;5.344;2023-04-24T04:31:20;10.00;99.90
12901;DHT22;6518;50.930;5.344;2023-04-24T04:33:47;9.90;99.90
12901;DHT22;6518;50.930;5.344;2023-04-24T04:36:14;9.90;99.90
12901;DHT22;6518;50.930;5.344;2023-04-24T04:38:42;9.80;99.90
12901;DHT22;6518;50.930;5.344;2023-04-24T04:41:10;9.90;99.90
12901;DHT22;6518;50.930;5.344;2023-04-24T04:43:37;9.90;99.90
12901;DHT22;6518;50.930;5.344;2023-04-24T04:46:06;9.80;99.90
12901;DHT22;6518;50.930;5.344;2023-04-24T04:48:35;9.70;99.90
12901;DHT22;6518;50.930;5.344;2023-04-24T04:51:02;9.70;99.90
12901;DHT22;6518;50.930;5.344;2023-04-24T04:53:29;9.70;99.90
12901;DHT22;6518;50.930;5.344;2023-04-24T04:55:56;9.70;99.90
12901;DHT22;6518;50.930;5.344;2023-04-24T04:58:23;9.70;99.90
12901;DHT22;6518;50.930;5.344;2023-04-24T05:00:50;9.70;99.90
12901;DHT22;6518;50.930;5.344;2023-04-24T05:03:17;9.70;99.90
12901;DHT22;6518;50.930;5.344;2023-04-24T05:05:46;9.70;99.90
12901;DHT22;6518;50.930;5.344;2023-04-24T05:08:12;9.60;99.90
12901;DHT22;6518;50.930;5.344;2023-04-24T05:10:39;9.60;99.90
12901;DHT22;6518;50.930;5.344;2023-04-24T05:13:06;9.70;99.90
12901;DHT22;6518;50.930;5.344;2023-04-24T05:15:33;9.70;99.90
12901;DHT22;6518;50.930;5.344;2023-04-24T05:18:00;9.70;99.90
12901;DHT22;6518;50.930;5.344;2023-04-24T05:20:27;9.60;99.90
12901;DHT22;6518;50.930;5.344;2023-04-24T05:22:56;9.60;99.90
12901;DHT22;6518;50.930;5.344;2023-04-24T05:25:22;9.70;99.90
12901;DHT22;6518;50.930;5.344;2023-04-24T05:27:49;9.70;99.90
12901;DHT22;6518;50.930;5.344;2023-04-24T05:30:16;9.70;99.90
12901;DHT22;6518;50.930;5.344;2023-04-24T05:32:43;9.70;99.90
12901;DHT22;6518;50.930;5.344;2023-04-24T05:35:10;9.60;99.90
12901;DHT22;6518;50.930;5.344;2023-04-24T05:37:37;9.60;99.90
12901;DHT22;6518;50.930;5.344;2023-04-24T05:40:07;9.60;99.90
12901;DHT22;6518;50.930;5.344;2023-04-24T05:42:34;9.70;99.90
12901;DHT22;6518;50.930;5.344;2023-04-24T05:45:01;9.60;99.90
12901;DHT22;6518;50.930;5.344;2023-04-24T05:47:28;9.50;99.90
12901;DHT22;6518;50.930;5.344;2023-04-24T05:49:55;9.50;99.90
12901;DHT22;6518;50.930;5.344;2023-04-24T05:52:22;9.50;99.90
12901;DHT22;6518;50.930;5.344;2023-04-24T05:54:48;9.30;99.90
12901;DHT22;6518;50.930;5.344;2023-04-24T05:57:17;9.30;99.90
12901;DHT22;6518;50.930;5.344;2023-04-24T05:59:44;9.20;99.90
12901;DHT22;6518;50.930;5.344;2023-04-24T06:02:11;9.20;99.90
12901;DHT22;6518;50.930;5.344;2023-04-24T06:04:37;9.20;99.90
12901;DHT22;6518;50.930;5.344;2023-04-24T06:07:05;9.10;99.90
12901;DHT22;6518;50.930;5.344;2023-04-24T06:09:32;9.10;99.90
12901;DHT22;6518;50.930;5.344;2023-04-24T06:11:59;9.10;99.90
12901;DHT22;6518;50.930;5.344;2023-04-24T06:14:27;9.10;99.90
12901;DHT22;6518;50.930;5.344;2023-04-24T06:16:54;9.00;99.90
12901;DHT22;6518;50.930;5.344;2023-04-24T06:19:21;9.00;99.90
12901;DHT22;6518;50.930;5.344;2023-04-24T06:21:48;9.00;99.90
12901;DHT22;6518;50.930;5.344;2023-04-24T06:24:15;8.90;99.90
12901;DHT22;6518;50.930;5.344;2023-04-24T06:26:42;9.00;99.90
12901;DHT22;6518;50.930;5.344;2023-04-24T06:29:09;9.00;99.90
12901;DHT22;6518;50.930;5.344;2023-04-24T06:31:37;8.90;99.90
12901;DHT22;6518;50.930;5.344;2023-04-24T06:34:04;8.90;99.90
12901;DHT22;6518;50.930;5.344;2023-04-24T06:36:31;8.90;99.90
12901;DHT22;6518;50.930;5.344;2023-04-24T06:39:00;8.90;99.90
12901;DHT22;6518;50.930;5.344;2023-04-24T06:41:27;8.90;99.90
12901;DHT22;6518;50.930;5.344;2023-04-24T06:43:54;8.90;99.90
12901;DHT22;6518;50.930;5.344;2023-04-24T06:46:22;8.90;99.90
12901;DHT22;6518;50.930;5.344;2023-04-24T06:48:52;8.80;99.90
12901;DHT22;6518;50.930;5.344;2023-04-24T06:51:22;8.80;99.90
12901;DHT22;6518;50.930;5.344;2023-04-24T06:53:49;8.80;99.90
12901;DHT22;6518;50.930;5.344;2023-04-24T06:56:16;8.80;99.90
12901;DHT22;6518;50.930;5.344;2023-04-24T06:58:43;8.80;99.90
12901;DHT22;6518;50.930;5.344;2023-04-24T07:01:10;8.80;99.90
12901;DHT22;6518;50.930;5.344;2023-04-24T07:03:38;8.80;99.90
12901;DHT22;6518;50.930;5.344;2023-04-24T07:06:06;8.80;99.90
12901;DHT22;6518;50.930;5.344;2023-04-24T07:08:33;8.80;99.90
12901;DHT22;6518;50.930;5.344;2023-04-24T07:11:01;8.90;99.90
12901;DHT22;6518;50.930;5.344;2023-04-24T07:13:28;8.90;99.90
12901;DHT22;6518;50.930;5.344;2023-04-24T07:15:55;8.90;99.90
12901;DHT22;6518;50.930;5.344;2023-04-24T07:18:22;8.90;99.90
12901;DHT22;6518;50.930;5.344;2023-04-24T07:20:49;9.00;99.90
12901;DHT22;6518;50.930;5.344;2023-04-24T07:23:19;9.00;99.90
12901;DHT22;6518;50.930;5.344;2023-04-24T07:25:46;9.00;99.90
12901;DHT22;6518;50.930;5.344;2023-04-24T07:28:13;9.00;99.90
12901;DHT22;6518;50.930;5.344;2023-04-24T07:30:40;9.00;99.90
12901;DHT22;6518;50.930;5.344;2023-04-24T07:33:07;9.00;99.90
12901;DHT22;6518;50.930;5.344;2023-04-24T07:35:34;9.10;99.90
12901;DHT22;6518;50.930;5.344;2023-04-24T07:38:01;9.10;99.90
12901;DHT22;6518;50.930;5.344;2023-04-24T07:40:29;9.20;99.90
12901;DHT22;6518;50.930;5.344;2023-04-24T07:42:56;9.30;99.90
12901;DHT22;6518;50.930;5.344;2023-04-24T07:45:23;9.40;99.90
12901;DHT22;6518;50.930;5.344;2023-04-24T07:47:51;9.40;99.90
12901;DHT22;6518;50.930;5.344;2023-04-24T07:50:18;9.40;99.90
12901;DHT22;6518;50.930;5.344;2023-04-24T07:52:45;9.30;99.90
12901;DHT22;6518;50.930;5.344;2023-04-24T07:55:13;9.20;99.90
12901;DHT22;6518;50.930;5.344;2023-04-24T07:57:41;9.10;99.90
12901;DHT22;6518;50.930;5.344;2023-04-24T08:00:09;9.10;99.90
12901;DHT22;6518;50.930;5.344;2023-04-24T08:02:36;9.10;99.90
12901;DHT22;6518;50.930;5.344;2023-04-24T08:05:03;9.20;99.90
12901;DHT22;6518;50.930;5.344;2023-04-24T08:07:30;9.20;99.90
12901;DHT22;6518;50.930;5.344;2023-04-24T08:09:57;9.10;99.90
12901;DHT22;6518;50.930;5.344;2023-04-24T08:12:25;9.10;99.90
12901;DHT22;6518;50.930;5.344;2023-04-24T08:14:53;9.10;99.90
12901;DHT22;6518;50.930;5.344;2023-04-24T08:17:20;9.10;99.90
12901;DHT22;6518;50.930;5.344;2023-04-24T08:19:47;9.10;99.90
12901;DHT22;6518;50.930;5.344;2023-04-24T08:22:14;9.10;99.90
12901;DHT22;6518;50.930;5.344;2023-04-24T08:24:41;9.10;99.90
12901;DHT22;6518;50.930;5.344;2023-04-24T08:27:09;9.10;99.90
12901;DHT22;6518;50.930;5.344;2023-04-24T08:29:36;9.20;99.90
12901;DHT22;6518;50.930;5.344;2023-04-24T08:32:05;9.20;99.90
12901;DHT22;6518;50.930;5.344;2023-04-24T08:34:32;9.30;99.90
12901;DHT22;6518;50.930;5.344;2023-04-24T08:36:58;9.40;99.90
12901;DHT22;6518;50.930;5.344;2023-04-24T08:39:25;9.40;99.90
12901;DHT22;6518;50.930;5.344;2023-04-24T08:41:53;9.40;99.90
12901;DHT22;6518;50.930;5.344;2023-04-24T08:44:20;9.60;99.90
12901;DHT22;6518;50.930;5.344;2023-04-24T08:46:48;9.60;99.90
12901;DHT22;6518;50.930;5.344;2023-04-24T08:49:18;9.60;99.90
12901;DHT22;6518;50.930;5.344;2023-04-24T08:51:45;9.70;99.90
12901;DHT22;6518;50.930;5.344;2023-04-24T08:54:13;9.80;99.90
12901;DHT22;6518;50.930;5.344;2023-04-24T08:56:44;10.00;99.90
12901;DHT22;6518;50.930;5.344;2023-04-24T08:59:11;10.00;99.90
12901;DHT22;6518;50.930;5.344;2023-04-24T09:01:40;10.00;99.90
12901;DHT22;6518;50.930;5.344;2023-04-24T09:04:08;10.00;99.90
12901;DHT22;6518;50.930;5.344;2023-04-24T09:06:39;10.00;99.90
12901;DHT22;6518;50.930;5.344;2023-04-24T09:09:06;9.90;99.90
12901;DHT22;6518;50.930;5.344;2023-04-24T09:11:34;9.70;99.90
12901;DHT22;6518;50.930;5.344;2023-04-24T09:14:01;9.60;99.90
12901;DHT22;6518;50.930;5.344;2023-04-24T09:16:28;9.50;99.90
12901;DHT22;6518;50.930;5.344;2023-04-24T09:18:55;9.50;99.90
12901;DHT22;6518;50.930;5.344;2023-04-24T09:21:22;9.50;99.90
12901;DHT22;6518;50.930;5.344;2023-04-24T09:23:59;9.50;99.90
12901;DHT22;6518;50.930;5.344;2023-04-24T09:26:29;9.60;99.90
12901;DHT22;6518;50.930;5.344;2023-04-24T09:28:58;9.70;99.90
12901;DHT22;6518;50.930;5.344;2023-04-24T09:31:27;9.80;99.90
12901;DHT22;6518;50.930;5.344;2023-04-24T09:33:55;9.90;99.90
12901;DHT22;6518;50.930;5.344;2023-04-24T09:36:27;10.10;99.90
12901;DHT22;6518;50.930;5.344;2023-04-24T09:38:59;10.20;99.90
12901;DHT22;6518;50.930;5.344;2023-04-24T09:41:27;10.40;99.90
12901;DHT22;6518;50.930;5.344;2023-04-24T09:43:55;10.50;99.90
12901;DHT22;6518;50.930;5.344;2023-04-24T09:46:29;10.60;99.90
12901;DHT22;6518;50.930;5.344;2023-04-24T09:48:57;10.70;99.90
12901;DHT22;6518;50.930;5.344;2023-04-24T09:51:34;10.80;99.90
12901;DHT22;6518;50.930;5.344;2023-04-24T09:54:04;11.00;99.90
12901;DHT22;6518;50.930;5.344;2023-04-24T09:56:34;11.10;99.90
12901;DHT22;6518;50.930;5.344;2023-04-24T09:59:06;11.20;99.90
12901;DHT22;6518;50.930;5.344;2023-04-24T10:01:34;11.30;99.90
12901;DHT22;6518;50.930;5.344;2023-04-24T10:04:02;11.30;99.90
12901;DHT22;6518;50.930;5.344;2023-04-24T10:06:34;11.40;99.90
12901;DHT22;6518;50.930;5.344;2023-04-24T10:09:03;11.50;99.90
12901;DHT22;6518;50.930;5.344;2023-04-24T10:11:30;11.50;99.90
12901;DHT22;6518;50.930;5.344;2023-04-24T10:13:57;11.50;99.90
12901;DHT22;6518;50.930;5.344;2023-04-24T10:16:26;11.40;96.70
12901;DHT22;6518;50.930;5.344;2023-04-24T10:18:54;11.30;96.30
12901;DHT22;6518;50.930;5.344;2023-04-24T10:21:21;11.40;94.40
12901;DHT22;6518;50.930;5.344;2023-04-24T10:23:49;11.30;93.20
12901;DHT22;6518;50.930;5.344;2023-04-24T10:26:19;11.20;92.40
12901;DHT22;6518;50.930;5.344;2023-04-24T10:28:47;11.20;91.90
12901;DHT22;6518;50.930;5.344;2023-04-24T10:31:14;11.10;91.40
12901;DHT22;6518;50.930;5.344;2023-04-24T10:33:43;11.20;90.90
12901;DHT22;6518;50.930;5.344;2023-04-24T10:36:10;11.20;90.40
12901;DHT22;6518;50.930;5.344;2023-04-24T10:38:40;11.10;90.60
12901;DHT22;6518;50.930;5.344;2023-04-24T10:41:09;11.20;90.90
12901;DHT22;6518;50.930;5.344;2023-04-24T10:43:42;11.30;91.00
12901;DHT22;6518;50.930;5.344;2023-04-24T10:46:09;11.50;91.80
12901;DHT22;6518;50.930;5.344;2023-04-24T10:48:42;11.60;92.10
12901;DHT22;6518;50.930;5.344;2023-04-24T10:51:12;11.70;92.20
12901;DHT22;6518;50.930;5.344;2023-04-24T10:53:39;11.60;90.50
12901;DHT22;6518;50.930;5.344;2023-04-24T10:56:07;11.60;90.30
12901;DHT22;6518;50.930;5.344;2023-04-24T10:58:40;11.50;91.00
12901;DHT22;6518;50.930;5.344;2023-04-24T11:01:23;11.40;91.40
12901;DHT22;6518;50.930;5.344;2023-04-24T11:03:54;11.30;92.00
12901;DHT22;6518;50.930;5.344;2023-04-24T11:06:29;11.30;92.70
12901;DHT22;6518;50.930;5.344;2023-04-24T11:09:02;11.30;93.00
12901;DHT22;6518;50.930;5.344;2023-04-24T11:11:29;11.30;93.10
12901;DHT22;6518;50.930;5.344;2023-04-24T11:14:05;11.40;92.80
12901;DHT22;6518;50.930;5.344;2023-04-24T11:16:39;11.40;92.80
12901;DHT22;6518;50.930;5.344;2023-04-24T11:19:09;11.40;92.80
12901;DHT22;6518;50.930;5.344;2023-04-24T11:21:47;11.40;93.00
12901;DHT22;6518;50.930;5.344;2023-04-24T11:24:38;11.30;92.70
12901;DHT22;6518;50.930;5.344;2023-04-24T11:27:09;11.30;93.00
12901;DHT22;6518;50.930;5.344;2023-04-24T11:29:45;11.40;92.00
12901;DHT22;6518;50.930;5.344;2023-04-24T11:32:18;11.40;89.50
12901;DHT22;6518;50.930;5.344;2023-04-24T11:34:47;11.60;87.40
12901;DHT22;6518;50.930;5.344;2023-04-24T11:37:14;11.70;86.90
12901;DHT22;6518;50.930;5.344;2023-04-24T11:39:41;11.70;84.00
12901;DHT22;6518;50.930;5.344;2023-04-24T11:42:09;11.70;82.80
12901;DHT22;6518;50.930;5.344;2023-04-24T11:44:36;11.40;82.80
12901;DHT22;6518;50.930;5.344;2023-04-24T11:47:04;11.80;82.40
12901;DHT22;6518;50.930;5.344;2023-04-24T11:49:32;11.90;81.90
12901;DHT22;6518;50.930;5.344;2023-04-24T11:51:59;12.00;80.90
12901;DHT22;6518;50.930;5.344;2023-04-24T11:54:27;12.00;81.50
12901;DHT22;6518;50.930;5.344;2023-04-24T11:56:54;12.00;82.90
12901;DHT22;6518;50.930;5.344;2023-04-24T11:59:21;12.10;81.90
12901;DHT22;6518;50.930;5.344;2023-04-24T12:01:48;12.20;81.40
12901;DHT22;6518;50.930;5.344;2023-04-24T12:04:17;12.20;81.10
12901;DHT22;6518;50.930;5.344;2023-04-24T12:09:43;11.90;79.50
12901;DHT22;6518;50.930;5.344;2023-04-24T12:12:11;12.00;80.70
12901;DHT22;6518;50.930;5.344;2023-04-24T12:14:47;12.10;80.10
12901;DHT22;6518;50.930;5.344;2023-04-24T12:17:15;12.30;79.90
12901;DHT22;6518;50.930;5.344;2023-04-24T12:19:46;12.40;73.80
12901;DHT22;6518;50.930;5.344;2023-04-24T12:22:14;12.30;71.90
12901;DHT22;6518;50.930;5.344;2023-04-24T12:24:59;12.20;72.40
12901;DHT22;6518;50.930;5.344;2023-04-24T12:27:28;12.20;71.70
12901;DHT22;6518;50.930;5.344;2023-04-24T12:29:56;12.30;71.70
12901;DHT22;6518;50.930;5.344;2023-04-24T12:32:24;12.40;70.50
12901;DHT22;6518;50.930;5.344;2023-04-24T12:34:52;12.50;71.20
12901;DHT22;6518;50.930;5.344;2023-04-24T12:37:19;12.60;71.50
12901;DHT22;6518;50.930;5.344;2023-04-24T12:40:01;12.70;71.70
12901;DHT22;6518;50.930;5.344;2023-04-24T12:42:29;12.60;71.70
12901;DHT22;6518;50.930;5.344;2023-04-24T12:44:57;12.70;72.20
12901;DHT22;6518;50.930;5.344;2023-04-24T12:47:25;12.70;73.10
12901;DHT22;6518;50.930;5.344;2023-04-24T12:49:52;12.80;73.00
12901;DHT22;6518;50.930;5.344;2023-04-24T12:52:21;12.80;72.40
12901;DHT22;6518;50.930;5.344;2023-04-24T12:54:48;12.80;72.30
12901;DHT22;6518;50.930;5.344;2023-04-24T12:57:16;12.80;71.40
12901;DHT22;6518;50.930;5.344;2023-04-24T12:59:43;12.80;72.50
12901;DHT22;6518;50.930;5.344;2023-04-24T13:02:10;12.70;70.80
12901;DHT22;6518;50.930;5.344;2023-04-24T13:04:37;12.70;70.30
12901;DHT22;6518;50.930;5.344;2023-04-24T13:07:05;12.70;70.50
12901;DHT22;6518;50.930;5.344;2023-04-24T13:09:33;12.60;70.80
12901;DHT22;6518;50.930;5.344;2023-04-24T13:12:00;12.70;71.90
12901;DHT22;6518;50.930;5.344;2023-04-24T13:14:29;12.60;71.80
12901;DHT22;6518;50.930;5.344;2023-04-24T13:16:56;12.80;71.40
12901;DHT22;6518;50.930;5.344;2023-04-24T13:19:24;12.70;70.90
12901;DHT22;6518;50.930;5.344;2023-04-24T13:21:51;12.70;71.00
12901;DHT22;6518;50.930;5.344;2023-04-24T13:24:18;12.70;71.80
12901;DHT22;6518;50.930;5.344;2023-04-24T13:26:45;12.80;70.70
12901;DHT22;6518;50.930;5.344;2023-04-24T13:29:12;12.80;70.00
12901;DHT22;6518;50.930;5.344;2023-04-24T13:31:40;12.90;70.00
12901;DHT22;6518;50.930;5.344;2023-04-24T13:34:07;12.80;70.00
12901;DHT22;6518;50.930;5.344;2023-04-24T13:36:34;12.80;69.80
12901;DHT22;6518;50.930;5.344;2023-04-24T13:39:01;12.70;70.20
12901;DHT22;6518;50.930;5.344;2023-04-24T13:41:29;12.80;70.80
12901;DHT22;6518;50.930;5.344;2023-04-24T13:43:56;12.90;70.80
12901;DHT22;6518;50.930;5.344;2023-04-24T13:46:23;12.90;70.60
12901;DHT22;6518;50.930;5.344;2023-04-24T13:48:51;13.20;70.90
12901;DHT22;6518;50.930;5.344;2023-04-24T13:51:19;13.30;69.30
12901;DHT22;6518;50.930;5.344;2023-04-24T13:53:45;13.30;68.40
12901;DHT22;6518;50.930;5.344;2023-04-24T13:56:12;13.10;68.60
12901;DHT22;6518;50.930;5.344;2023-04-24T13:58:39;12.60;68.30
12901;DHT22;6518;50.930;5.344;2023-04-24T14:01:07;13.00;69.50
12901;DHT22;6518;50.930;5.344;2023-04-24T14:03:34;13.10;69.50
12901;DHT22;6518;50.930;5.344;2023-04-24T14:06:02;13.10;69.80
12901;DHT22;6518;50.930;5.344;2023-04-24T14:08:29;13.20;67.40
12901;DHT22;6518;50.930;5.344;2023-04-24T14:10:56;13.30;67.20
12901;DHT22;6518;50.930;5.344;2023-04-24T14:13:23;13.20;67.50
12901;DHT22;6518;50.930;5.344;2023-04-24T14:15:51;13.30;67.60
12901;DHT22;6518;50.930;5.344;2023-04-24T14:18:18;13.40;66.80
12901;DHT22;6518;50.930;5.344;2023-04-24T14:20:45;13.50;66.40
12901;DHT22;6518;50.930;5.344;2023-04-24T14:23:14;13.50;65.60
12901;DHT22;6518;50.930;5.344;2023-04-24T14:25:40;13.60;65.30
12901;DHT22;6518;50.930;5.344;2023-04-24T14:28:07;13.70;65.50
12901;DHT22;6518;50.930;5.344;2023-04-24T14:30:34;13.70;65.60
12901;DHT22;6518;50.930;5.344;2023-04-24T14:33:03;13.70;65.50
12901;DHT22;6518;50.930;5.344;2023-04-24T14:35:30;13.70;65.10
12901;DHT22;6518;50.930;5.344;2023-04-24T14:37:59;13.70;65.40
12901;DHT22;6518;50.930;5.344;2023-04-24T14:40:28;13.70;64.70
12901;DHT22;6518;50.930;5.344;2023-04-24T14:42:55;13.50;65.00
12901;DHT22;6518;50.930;5.344;2023-04-24T14:45:23;13.80;64.70
12901;DHT22;6518;50.930;5.344;2023-04-24T14:47:50;13.50;64.00
12901;DHT22;6518;50.930;5.344;2023-04-24T14:50:17;13.60;64.30
12901;DHT22;6518;50.930;5.344;2023-04-24T14:52:44;13.60;63.90
12901;DHT22;6518;50.930;5.344;2023-04-24T14:55:11;13.70;65.10
12901;DHT22;6518;50.930;5.344;2023-04-24T14:57:40;13.70;64.30
12901;DHT22;6518;50.930;5.344;2023-04-24T15:00:08;13.80;63.80
12901;DHT22;6518;50.930;5.344;2023-04-24T15:02:36;13.60;64.40
12901;DHT22;6518;50.930;5.344;2023-04-24T15:05:07;13.60;64.60
12901;DHT22;6518;50.930;5.344;2023-04-24T15:07:34;13.70;64.30
12901;DHT22;6518;50.930;5.344;2023-04-24T15:10:02;13.80;65.40
12901;DHT22;6518;50.930;5.344;2023-04-24T15:12:29;13.70;65.00
12901;DHT22;6518;50.930;5.344;2023-04-24T15:14:57;13.70;64.40
12901;DHT22;6518;50.930;5.344;2023-04-24T15:17:24;13.80;64.90
12901;DHT22;6518;50.930;5.344;2023-04-24T15:19:52;13.70;63.70
12901;DHT22;6518;50.930;5.344;2023-04-24T15:22:19;13.70;63.80
12901;DHT22;6518;50.930;5.344;2023-04-24T15:24:46;13.80;64.30
12901;DHT22;6518;50.930;5.344;2023-04-24T15:27:12;13.80;63.30
12901;DHT22;6518;50.930;5.344;2023-04-24T15:29:39;13.80;63.20
12901;DHT22;6518;50.930;5.344;2023-04-24T15:32:08;13.90;62.10
12901;DHT22;6518;50.930;5.344;2023-04-24T15:34:35;13.90;61.40
12901;DHT22;6518;50.930;5.344;2023-04-24T15:37:01;13.70;60.80
12901;DHT22;6518;50.930;5.344;2023-04-24T15:39:28;13.70;61.20
12901;DHT22;6518;50.930;5.344;2023-04-24T15:41:55;13.50;61.00
12901;DHT22;6518;50.930;5.344;2023-04-24T15:44:23;13.50;61.70
12901;DHT22;6518;50.930;5.344;2023-04-24T15:46:49;13.40;62.10
12901;DHT22;6518;50.930;5.344;2023-04-24T15:49:18;13.40;62.70
12901;DHT22;6518;50.930;5.344;2023-04-24T15:51:45;13.40;63.30
12901;DHT22;6518;50.930;5.344;2023-04-24T15:54:13;13.40;62.60
12901;DHT22;6518;50.930;5.344;2023-04-24T15:56:40;13.30;62.50